Airfield :
LOGIN :

Register | Disclaimer

   EN    FR    IT 

 










Legend :    VFR   Marginal VFR   IFR   Intensive IFR   Very Intensive IFR
Visi :
Ceiling :
>= 8 km
>= 3000ft
5 to 8 km
1000 to 3000 ft
1500m to 5 km
500 to 1000 ft
800 to 1500m
200 to 500 ft
< 800m
< 200 ft
Symbols :   Thunderstorms  Fog  Heavy snow  Heavy precipitations  Wind > 20 kt
SIGMETs :     Misc.  Thunderstorms  Icing  Turbulence  Mountain Waves  Volcanic Ashes







- Airport Elevation : 1830 ft


EBLB - Butgenbach Elsenborn

CURRENT METAR :
  • 190225Z AUTO 31012KT 9999 BKN011/// 03/01 Q1014 GRN

EXPIRED METARs :
  • 190155Z AUTO 31014G26KT 9999 BKN007/// 03/02 Q1014 GRN
  • 190125Z AUTO 32012KT 9999 BKN007/// 03/02 Q1014 GRN
  • 190055Z AUTO 33013KT 4700 -RA OVC007/// 02/01 Q1014 GRN
  • 190041Z AUTO 29011KT 3000 RA OVC007/// 04/03 Q1014 YLO
  • 190025Z AUTO 29012KT 9999 OVC007/// 04/03 Q1014 GRN
  • 190013Z AUTO 29012KT 9999 BKN007/// 04/03 Q1014 GRN
  • 182355Z AUTO 29012KT 9999 BKN006/// 04/03 Q1014 YLO

Expired Forecast.
No reported NOTAMs for that airfield.



MET'MAP, your aeronautical weather chart ! - Copyright ORBIFLY December 2007 - Disclaimer

ORBIFLY MET'MAP TEAM :

Programming & Development : Alexandra Zaïnal
Concept & Development : Baudouin d'Aumeries
Co-Development & Prog : Marc-Olivier Méhu
Technical & hardware support : Manuel Goepfert

Contact : metmap@orbifly.com




SOURCES & CREDITS :

   NOAA